sensor_id;sensor_type;location;lat;lon;timestamp;P1;durP1;ratioP1;P2;durP2;ratioP2
20884;SDS011;10602;48.000;9.654;2023-09-18T00:01:26;6.27;;;3.53;;
20884;SDS011;10602;48.000;9.654;2023-09-18T00:03:54;3.73;;;3.43;;
20884;SDS011;10602;48.000;9.654;2023-09-18T00:06:21;4.80;;;3.27;;
20884;SDS011;10602;48.000;9.654;2023-09-18T00:08:51;4.47;;;3.60;;
20884;SDS011;10602;48.000;9.654;2023-09-18T00:11:20;3.80;;;3.30;;
20884;SDS011;10602;48.000;9.654;2023-09-18T00:13:47;4.10;;;3.70;;
20884;SDS011;10602;48.000;9.654;2023-09-18T00:16:19;4.93;;;3.80;;
20884;SDS011;10602;48.000;9.654;2023-09-18T00:18:54;4.43;;;3.43;;
20884;SDS011;10602;48.000;9.654;2023-09-18T00:21:22;5.83;;;3.50;;
20884;SDS011;10602;48.000;9.654;2023-09-18T00:23:52;4.37;;;3.63;;
20884;SDS011;10602;48.000;9.654;2023-09-18T00:26:20;4.40;;;3.57;;
20884;SDS011;10602;48.000;9.654;2023-09-18T00:28:50;3.93;;;3.47;;
20884;SDS011;10602;48.000;9.654;2023-09-18T00:31:21;5.73;;;4.03;;
20884;SDS011;10602;48.000;9.654;2023-09-18T00:33:48;4.80;;;3.73;;
20884;SDS011;10602;48.000;9.654;2023-09-18T00:36:16;3.80;;;3.40;;
20884;SDS011;10602;48.000;9.654;2023-09-18T00:38:48;5.40;;;3.77;;
20884;SDS011;10602;48.000;9.654;2023-09-18T00:41:18;5.73;;;3.27;;
20884;SDS011;10602;48.000;9.654;2023-09-18T00:43:46;4.20;;;3.20;;
20884;SDS011;10602;48.000;9.654;2023-09-18T00:46:15;5.00;;;3.13;;
20884;SDS011;10602;48.000;9.654;2023-09-18T00:48:45;4.07;;;3.30;;
20884;SDS011;10602;48.000;9.654;2023-09-18T00:51:12;4.50;;;3.20;;
20884;SDS011;10602;48.000;9.654;2023-09-18T00:53:43;3.60;;;3.17;;
20884;SDS011;10602;48.000;9.654;2023-09-18T00:56:14;4.93;;;3.30;;
20884;SDS011;10602;48.000;9.654;2023-09-18T00:58:46;3.77;;;2.90;;
20884;SDS011;10602;48.000;9.654;2023-09-18T01:01:14;3.33;;;2.90;;
20884;SDS011;10602;48.000;9.654;2023-09-18T01:03:46;4.50;;;3.27;;
20884;SDS011;10602;48.000;9.654;2023-09-18T01:06:17;3.20;;;2.80;;
20884;SDS011;10602;48.000;9.654;2023-09-18T01:08:48;6.77;;;2.77;;
20884;SDS011;10602;48.000;9.654;2023-09-18T01:11:26;5.07;;;3.00;;
20884;SDS011;10602;48.000;9.654;2023-09-18T01:16:36;3.37;;;3.07;;
20884;SDS011;10602;48.000;9.654;2023-09-18T01:19:07;4.83;;;3.60;;
20884;SDS011;10602;48.000;9.654;2023-09-18T01:21:35;3.63;;;2.90;;
20884;SDS011;10602;48.000;9.654;2023-09-18T01:24:03;4.20;;;3.17;;
20884;SDS011;10602;48.000;9.654;2023-09-18T01:26:31;3.77;;;3.20;;
20884;SDS011;10602;48.000;9.654;2023-09-18T01:29:00;4.33;;;3.30;;
20884;SDS011;10602;48.000;9.654;2023-09-18T01:31:29;4.27;;;3.10;;
20884;SDS011;10602;48.000;9.654;2023-09-18T01:33:56;7.03;;;3.80;;
20884;SDS011;10602;48.000;9.654;2023-09-18T01:36:25;5.43;;;4.17;;
20884;SDS011;10602;48.000;9.654;2023-09-18T01:38:53;4.83;;;3.70;;
20884;SDS011;10602;48.000;9.654;2023-09-18T01:41:23;5.23;;;4.10;;
20884;SDS011;10602;48.000;9.654;2023-09-18T01:43:54;7.00;;;4.60;;
20884;SDS011;10602;48.000;9.654;2023-09-18T01:46:22;6.57;;;4.67;;
20884;SDS011;10602;48.000;9.654;2023-09-18T01:48:50;5.33;;;4.33;;
20884;SDS011;10602;48.000;9.654;2023-09-18T01:51:18;4.83;;;4.33;;
20884;SDS011;10602;48.000;9.654;2023-09-18T01:53:46;6.50;;;4.60;;
20884;SDS011;10602;48.000;9.654;2023-09-18T01:56:16;5.10;;;4.03;;
20884;SDS011;10602;48.000;9.654;2023-09-18T01:58:49;4.67;;;4.27;;
20884;SDS011;10602;48.000;9.654;2023-09-18T02:01:16;5.73;;;4.20;;
20884;SDS011;10602;48.000;9.654;2023-09-18T02:03:44;5.47;;;4.50;;
20884;SDS011;10602;48.000;9.654;2023-09-18T02:06:14;5.10;;;4.30;;
20884;SDS011;10602;48.000;9.654;2023-09-18T02:08:43;7.07;;;4.20;;
20884;SDS011;10602;48.000;9.654;2023-09-18T02:11:10;5.23;;;4.10;;
20884;SDS011;10602;48.000;9.654;2023-09-18T02:13:38;6.03;;;3.97;;
20884;SDS011;10602;48.000;9.654;2023-09-18T02:16:05;4.40;;;3.80;;
20884;SDS011;10602;48.000;9.654;2023-09-18T02:18:33;5.47;;;4.13;;
20884;SDS011;10602;48.000;9.654;2023-09-18T02:21:01;4.27;;;3.83;;
20884;SDS011;10602;48.000;9.654;2023-09-18T02:23:29;4.43;;;3.93;;
20884;SDS011;10602;48.000;9.654;2023-09-18T02:25:57;4.47;;;4.07;;
20884;SDS011;10602;48.000;9.654;2023-09-18T02:28:25;4.90;;;4.07;;
20884;SDS011;10602;48.000;9.654;2023-09-18T02:30:52;4.67;;;4.00;;
20884;SDS011;10602;48.000;9.654;2023-09-18T02:33:20;5.13;;;4.30;;
20884;SDS011;10602;48.000;9.654;2023-09-18T02:35:51;5.73;;;4.37;;
20884;SDS011;10602;48.000;9.654;2023-09-18T02:38:19;7.30;;;4.50;;
20884;SDS011;10602;48.000;9.654;2023-09-18T02:40:50;4.30;;;3.90;;
20884;SDS011;10602;48.000;9.654;2023-09-18T02:43:18;5.30;;;4.13;;
20884;SDS011;10602;48.000;9.654;2023-09-18T02:45:47;5.00;;;4.40;;
20884;SDS011;10602;48.000;9.654;2023-09-18T02:48:17;6.10;;;4.17;;
20884;SDS011;10602;48.000;9.654;2023-09-18T02:50:50;5.13;;;4.07;;
20884;SDS011;10602;48.000;9.654;2023-09-18T02:53:19;5.03;;;4.40;;
20884;SDS011;10602;48.000;9.654;2023-09-18T02:55:50;4.60;;;3.70;;
20884;SDS011;10602;48.000;9.654;2023-09-18T02:58:18;6.43;;;4.20;;
20884;SDS011;10602;48.000;9.654;2023-09-18T03:00:48;5.37;;;4.30;;
20884;SDS011;10602;48.000;9.654;2023-09-18T03:03:17;4.47;;;3.70;;
20884;SDS011;10602;48.000;9.654;2023-09-18T03:05:46;4.43;;;3.77;;
20884;SDS011;10602;48.000;9.654;2023-09-18T03:08:17;7.07;;;3.57;;
20884;SDS011;10602;48.000;9.654;2023-09-18T03:10:47;5.83;;;4.10;;
20884;SDS011;10602;48.000;9.654;2023-09-18T03:13:15;6.00;;;3.73;;
20884;SDS011;10602;48.000;9.654;2023-09-18T03:15:44;4.63;;;3.80;;
20884;SDS011;10602;48.000;9.654;2023-09-18T03:18:17;4.33;;;3.93;;
20884;SDS011;10602;48.000;9.654;2023-09-18T03:20:46;4.53;;;3.90;;
20884;SDS011;10602;48.000;9.654;2023-09-18T03:29:16;6.00;;;4.33;;
20884;SDS011;10602;48.000;9.654;2023-09-18T03:32:13;6.60;;;4.07;;
20884;SDS011;10602;48.000;9.654;2023-09-18T03:38:18;5.40;;;4.40;;
20884;SDS011;10602;48.000;9.654;2023-09-18T03:55:54;7.83;;;4.60;;
20884;SDS011;10602;48.000;9.654;2023-09-18T04:02:05;4.50;;;3.87;;
20884;SDS011;10602;48.000;9.654;2023-09-18T04:51:02;5.97;;;4.70;;
20884;SDS011;10602;48.000;9.654;2023-09-18T05:00:24;5.27;;;3.77;;
20884;SDS011;10602;48.000;9.654;2023-09-18T05:06:04;5.40;;;3.70;;
20884;SDS011;10602;48.000;9.654;2023-09-18T05:14:43;5.67;;;4.50;;
20884;SDS011;10602;48.000;9.654;2023-09-18T05:17:27;7.30;;;4.70;;
20884;SDS011;10602;48.000;9.654;2023-09-18T05:32:10;5.40;;;4.40;;
20884;SDS011;10602;48.000;9.654;2023-09-18T05:34:47;5.70;;;4.60;;
20884;SDS011;10602;48.000;9.654;2023-09-18T05:37:15;6.33;;;4.80;;
20884;SDS011;10602;48.000;9.654;2023-09-18T05:39:47;6.67;;;4.37;;
20884;SDS011;10602;48.000;9.654;2023-09-18T05:42:16;5.53;;;4.63;;
20884;SDS011;10602;48.000;9.654;2023-09-18T05:44:45;8.57;;;5.00;;
20884;SDS011;10602;48.000;9.654;2023-09-18T05:47:13;6.83;;;4.40;;
20884;SDS011;10602;48.000;9.654;2023-09-18T05:49:42;6.20;;;4.57;;
20884;SDS011;10602;48.000;9.654;2023-09-18T05:52:10;4.90;;;4.40;;
20884;SDS011;10602;48.000;9.654;2023-09-18T05:54:39;4.93;;;4.43;;
20884;SDS011;10602;48.000;9.654;2023-09-18T05:57:09;10.83;;;4.93;;
20884;SDS011;10602;48.000;9.654;2023-09-18T05:59:36;6.83;;;4.37;;
20884;SDS011;10602;48.000;9.654;2023-09-18T06:02:06;6.43;;;4.43;;
20884;SDS011;10602;48.000;9.654;2023-09-18T06:04:33;5.43;;;4.37;;
20884;SDS011;10602;48.000;9.654;2023-09-18T06:07:04;6.73;;;4.63;;
20884;SDS011;10602;48.000;9.654;2023-09-18T06:09:34;5.87;;;4.90;;
20884;SDS011;10602;48.000;9.654;2023-09-18T06:12:04;6.43;;;4.67;;
20884;SDS011;10602;48.000;9.654;2023-09-18T06:14:37;7.03;;;4.13;;
20884;SDS011;10602;48.000;9.654;2023-09-18T06:17:08;7.47;;;4.30;;
20884;SDS011;10602;48.000;9.654;2023-09-18T06:19:37;4.90;;;4.10;;
20884;SDS011;10602;48.000;9.654;2023-09-18T06:27:48;4.37;;;3.80;;
20884;SDS011;10602;48.000;9.654;2023-09-18T06:33:31;5.13;;;3.97;;
20884;SDS011;10602;48.000;9.654;2023-09-18T06:36:01;6.37;;;3.70;;
20884;SDS011;10602;48.000;9.654;2023-09-18T06:38:34;6.83;;;3.57;;
20884;SDS011;10602;48.000;9.654;2023-09-18T06:41:09;7.43;;;4.37;;
20884;SDS011;10602;48.000;9.654;2023-09-18T06:43:41;4.87;;;3.90;;
20884;SDS011;10602;48.000;9.654;2023-09-18T06:46:11;6.10;;;3.77;;
20884;SDS011;10602;48.000;9.654;2023-09-18T06:48:40;6.63;;;3.73;;
20884;SDS011;10602;48.000;9.654;2023-09-18T06:51:13;6.40;;;3.73;;
20884;SDS011;10602;48.000;9.654;2023-09-18T06:53:51;7.23;;;4.10;;
20884;SDS011;10602;48.000;9.654;2023-09-18T06:56:16;5.77;;;3.83;;
20884;SDS011;10602;48.000;9.654;2023-09-18T06:58:49;7.70;;;4.30;;
20884;SDS011;10602;48.000;9.654;2023-09-18T07:01:17;7.10;;;4.80;;
20884;SDS011;10602;48.000;9.654;2023-09-18T07:03:48;6.47;;;4.10;;
20884;SDS011;10602;48.000;9.654;2023-09-18T07:06:17;7.87;;;3.97;;
20884;SDS011;10602;48.000;9.654;2023-09-18T07:08:49;7.27;;;4.00;;
20884;SDS011;10602;48.000;9.654;2023-09-18T07:11:17;9.77;;;4.47;;
20884;SDS011;10602;48.000;9.654;2023-09-18T07:13:46;7.47;;;4.20;;
20884;SDS011;10602;48.000;9.654;2023-09-18T07:16:14;5.53;;;4.13;;
20884;SDS011;10602;48.000;9.654;2023-09-18T07:18:42;7.57;;;4.27;;
20884;SDS011;10602;48.000;9.654;2023-09-18T07:21:09;6.10;;;4.03;;
20884;SDS011;10602;48.000;9.654;2023-09-18T07:23:39;7.30;;;3.73;;
20884;SDS011;10602;48.000;9.654;2023-09-18T07:26:08;4.50;;;3.87;;
20884;SDS011;10602;48.000;9.654;2023-09-18T07:28:37;23.87;;;18.57;;
20884;SDS011;10602;48.000;9.654;2023-09-18T07:31:07;15.57;;;11.43;;
20884;SDS011;10602;48.000;9.654;2023-09-18T07:33:38;11.47;;;7.13;;
20884;SDS011;10602;48.000;9.654;2023-09-18T07:36:08;20.33;;;14.40;;
20884;SDS011;10602;48.000;9.654;2023-09-18T07:38:37;7.20;;;5.03;;
20884;SDS011;10602;48.000;9.654;2023-09-18T07:41:06;7.57;;;4.07;;
20884;SDS011;10602;48.000;9.654;2023-09-18T07:43:33;8.10;;;4.23;;
20884;SDS011;10602;48.000;9.654;2023-09-18T07:46:03;5.60;;;3.70;;
20884;SDS011;10602;48.000;9.654;2023-09-18T07:48:34;6.70;;;4.23;;
20884;SDS011;10602;48.000;9.654;2023-09-18T07:51:03;7.50;;;3.80;;
20884;SDS011;10602;48.000;9.654;2023-09-18T07:53:30;6.87;;;4.70;;
20884;SDS011;10602;48.000;9.654;2023-09-18T07:55:58;7.33;;;4.27;;
20884;SDS011;10602;48.000;9.654;2023-09-18T07:58:27;9.93;;;4.10;;
20884;SDS011;10602;48.000;9.654;2023-09-18T08:00:56;6.23;;;4.00;;
20884;SDS011;10602;48.000;9.654;2023-09-18T08:03:27;5.63;;;4.07;;
20884;SDS011;10602;48.000;9.654;2023-09-18T08:06:11;8.37;;;4.33;;
20884;SDS011;10602;48.000;9.654;2023-09-18T08:08:57;9.50;;;4.93;;
20884;SDS011;10602;48.000;9.654;2023-09-18T08:11:37;7.77;;;3.50;;
20884;SDS011;10602;48.000;9.654;2023-09-18T08:14:35;8.87;;;4.13;;
20884;SDS011;10602;48.000;9.654;2023-09-18T08:17:32;4.73;;;3.23;;
20884;SDS011;10602;48.000;9.654;2023-09-18T08:34:57;6.93;;;2.80;;
20884;SDS011;10602;48.000;9.654;2023-09-18T08:46:12;3.90;;;2.13;;
20884;SDS011;10602;48.000;9.654;2023-09-18T08:48:48;6.57;;;2.10;;
20884;SDS011;10602;48.000;9.654;2023-09-18T08:51:23;6.10;;;2.33;;
20884;SDS011;10602;48.000;9.654;2023-09-18T08:53:52;4.23;;;2.13;;
20884;SDS011;10602;48.000;9.654;2023-09-18T08:56:26;5.40;;;2.30;;
20884;SDS011;10602;48.000;9.654;2023-09-18T08:59:15;4.67;;;2.03;;
20884;SDS011;10602;48.000;9.654;2023-09-18T09:09:42;5.20;;;2.10;;
20884;SDS011;10602;48.000;9.654;2023-09-18T09:15:12;9.63;;;2.13;;
20884;SDS011;10602;48.000;9.654;2023-09-18T09:17:52;6.93;;;1.90;;
20884;SDS011;10602;48.000;9.654;2023-09-18T09:23:08;2.73;;;1.50;;
20884;SDS011;10602;48.000;9.654;2023-09-18T09:25:38;4.83;;;2.10;;
20884;SDS011;10602;48.000;9.654;2023-09-18T09:28:09;4.70;;;2.17;;
20884;SDS011;10602;48.000;9.654;2023-09-18T11:40:34;1.97;;;1.87;;
20884;SDS011;10602;48.000;9.654;2023-09-18T11:46:05;3.50;;;2.00;;
20884;SDS011;10602;48.000;9.654;2023-09-18T11:51:59;2.20;;;1.87;;
20884;SDS011;10602;48.000;9.654;2023-09-18T11:57:30;2.80;;;2.00;;
20884;SDS011;10602;48.000;9.654;2023-09-18T12:00:17;3.70;;;2.13;;
20884;SDS011;10602;48.000;9.654;2023-09-18T12:02:45;5.03;;;2.30;;
20884;SDS011;10602;48.000;9.654;2023-09-18T12:05:19;2.90;;;2.10;;
20884;SDS011;10602;48.000;9.654;2023-09-18T12:07:52;3.43;;;2.20;;
20884;SDS011;10602;48.000;9.654;2023-09-18T12:13:06;3.27;;;2.60;;
20884;SDS011;10602;48.000;9.654;2023-09-18T12:15:38;5.27;;;2.53;;
20884;SDS011;10602;48.000;9.654;2023-09-18T12:18:15;4.87;;;2.00;;
20884;SDS011;10602;48.000;9.654;2023-09-18T12:21:08;4.77;;;2.27;;
20884;SDS011;10602;48.000;9.654;2023-09-18T12:23:45;4.10;;;2.23;;
20884;SDS011;10602;48.000;9.654;2023-09-18T12:26:29;4.47;;;2.70;;
20884;SDS011;10602;48.000;9.654;2023-09-18T12:29:05;3.73;;;2.10;;
20884;SDS011;10602;48.000;9.654;2023-09-18T12:31:42;3.30;;;2.30;;
20884;SDS011;10602;48.000;9.654;2023-09-18T12:34:36;3.37;;;2.40;;
20884;SDS011;10602;48.000;9.654;2023-09-18T12:37:10;3.60;;;2.53;;
20884;SDS011;10602;48.000;9.654;2023-09-18T12:39:45;3.80;;;2.53;;
20884;SDS011;10602;48.000;9.654;2023-09-18T12:42:18;3.23;;;2.20;;
20884;SDS011;10602;48.000;9.654;2023-09-18T12:44:47;5.53;;;2.83;;
20884;SDS011;10602;48.000;9.654;2023-09-18T12:47:49;5.13;;;2.50;;
20884;SDS011;10602;48.000;9.654;2023-09-18T12:53:14;4.97;;;2.50;;
20884;SDS011;10602;48.000;9.654;2023-09-18T12:55:43;3.53;;;2.40;;
20884;SDS011;10602;48.000;9.654;2023-09-18T12:58:18;4.13;;;2.23;;
20884;SDS011;10602;48.000;9.654;2023-09-18T13:00:50;3.40;;;2.30;;
20884;SDS011;10602;48.000;9.654;2023-09-18T13:03:23;3.90;;;2.17;;
20884;SDS011;10602;48.000;9.654;2023-09-18T13:05:49;2.47;;;1.70;;
20884;SDS011;10602;48.000;9.654;2023-09-18T13:08:47;4.03;;;1.97;;
20884;SDS011;10602;48.000;9.654;2023-09-18T13:11:07;3.10;;;2.00;;
20884;SDS011;10602;48.000;9.654;2023-09-18T13:20:38;3.67;;;1.97;;
20884;SDS011;10602;48.000;9.654;2023-09-18T13:26:27;3.93;;;1.77;;
20884;SDS011;10602;48.000;9.654;2023-09-18T13:29:23;2.70;;;1.70;;
20884;SDS011;10602;48.000;9.654;2023-09-18T17:30:08;2.37;;;1.57;;
20884;SDS011;10602;48.000;9.654;2023-09-18T17:35:41;2.13;;;1.20;;
20884;SDS011;10602;48.000;9.654;2023-09-18T17:41:52;2.13;;;1.30;;
20884;SDS011;10602;48.000;9.654;2023-09-18T17:44:35;2.17;;;1.40;;
20884;SDS011;10602;48.000;9.654;2023-09-18T17:47:18;2.37;;;1.70;;
20884;SDS011;10602;48.000;9.654;2023-09-18T17:49:48;1.80;;;1.40;;
20884;SDS011;10602;48.000;9.654;2023-09-18T17:52:34;1.80;;;1.43;;
20884;SDS011;10602;48.000;9.654;2023-09-18T17:55:12;4.33;;;2.90;;
20884;SDS011;10602;48.000;9.654;2023-09-18T17:57:41;5.87;;;4.20;;
20884;SDS011;10602;48.000;9.654;2023-09-18T18:00:11;6.40;;;3.70;;
20884;SDS011;10602;48.000;9.654;2023-09-18T18:02:42;5.73;;;3.60;;
20884;SDS011;10602;48.000;9.654;2023-09-18T18:05:13;4.20;;;2.20;;
20884;SDS011;10602;48.000;9.654;2023-09-18T18:07:42;3.23;;;2.00;;
20884;SDS011;10602;48.000;9.654;2023-09-18T18:10:17;3.37;;;1.73;;
20884;SDS011;10602;48.000;9.654;2023-09-18T18:12:47;2.90;;;1.53;;
20884;SDS011;10602;48.000;9.654;2023-09-18T18:15:16;3.63;;;1.60;;
20884;SDS011;10602;48.000;9.654;2023-09-18T18:17:51;2.70;;;1.40;;
20884;SDS011;10602;48.000;9.654;2023-09-18T18:20:23;2.33;;;1.83;;
20884;SDS011;10602;48.000;9.654;2023-09-18T18:22:55;1.47;;;1.27;;
20884;SDS011;10602;48.000;9.654;2023-09-18T18:25:32;2.27;;;1.63;;
20884;SDS011;10602;48.000;9.654;2023-09-18T18:28:03;2.13;;;1.67;;
20884;SDS011;10602;48.000;9.654;2023-09-18T18:30:34;2.23;;;1.50;;
20884;SDS011;10602;48.000;9.654;2023-09-18T18:33:02;1.60;;;1.20;;
20884;SDS011;10602;48.000;9.654;2023-09-18T18:35:31;1.70;;;1.40;;
20884;SDS011;10602;48.000;9.654;2023-09-18T18:40:45;2.20;;;1.43;;
20884;SDS011;10602;48.000;9.654;2023-09-18T18:43:38;3.10;;;1.63;;
20884;SDS011;10602;48.000;9.654;2023-09-18T18:46:05;2.57;;;1.60;;
20884;SDS011;10602;48.000;9.654;2023-09-18T18:48:35;2.27;;;1.30;;
20884;SDS011;10602;48.000;9.654;2023-09-18T18:51:07;2.43;;;1.60;;
20884;SDS011;10602;48.000;9.654;2023-09-18T18:53:55;3.10;;;1.70;;
20884;SDS011;10602;48.000;9.654;2023-09-18T18:56:34;2.23;;;1.30;;
20884;SDS011;10602;48.000;9.654;2023-09-18T18:59:11;1.90;;;1.70;;
20884;SDS011;10602;48.000;9.654;2023-09-18T22:25:05;3.47;;;1.90;;
20884;SDS011;10602;48.000;9.654;2023-09-18T22:27:33;2.50;;;1.60;;
20884;SDS011;10602;48.000;9.654;2023-09-18T22:30:18;4.50;;;1.70;;
20884;SDS011;10602;48.000;9.654;2023-09-18T22:32:57;2.80;;;1.63;;
20884;SDS011;10602;48.000;9.654;2023-09-18T22:35:33;2.07;;;1.70;;
20884;SDS011;10602;48.000;9.654;2023-09-18T22:55:57;2.73;;;2.17;;
20884;SDS011;10602;48.000;9.654;2023-09-18T22:58:29;2.57;;;1.80;;
20884;SDS011;10602;48.000;9.654;2023-09-18T23:03:40;2.13;;;1.93;;
20884;SDS011;10602;48.000;9.654;2023-09-18T23:15:22;3.60;;;2.20;;
20884;SDS011;10602;48.000;9.654;2023-09-18T23:17:54;3.70;;;2.07;;
20884;SDS011;10602;48.000;9.654;2023-09-18T23:20:25;3.63;;;2.00;;
20884;SDS011;10602;48.000;9.654;2023-09-18T23:22:59;2.87;;;2.10;;
20884;SDS011;10602;48.000;9.654;2023-09-18T23:25:30;3.93;;;2.10;;
20884;SDS011;10602;48.000;9.654;2023-09-18T23:28:04;6.57;;;2.30;;
20884;SDS011;10602;48.000;9.654;2023-09-18T23:30:43;3.63;;;2.30;;
20884;SDS011;10602;48.000;9.654;2023-09-18T23:33:12;4.20;;;2.17;;
20884;SDS011;10602;48.000;9.654;2023-09-18T23:36:17;2.20;;;1.90;;
20884;SDS011;10602;48.000;9.654;2023-09-18T23:38:50;4.10;;;2.10;;
20884;SDS011;10602;48.000;9.654;2023-09-18T23:44:23;3.60;;;2.33;;
20884;SDS011;10602;48.000;9.654;2023-09-18T23:46:56;2.87;;;1.90;;
20884;SDS011;10602;48.000;9.654;2023-09-18T23:49:35;3.87;;;2.10;;
20884;SDS011;10602;48.000;9.654;2023-09-18T23:52:13;3.13;;;2.13;;
20884;SDS011;10602;48.000;9.654;2023-09-18T23:54:44;3.30;;;2.40;;
20884;SDS011;10602;48.000;9.654;2023-09-18T23:57:47;3.67;;;2.40;;
